Imagem via: Mwebantu / Facebook

Um De Havilland DHC-8-300 Dash 8, matrícula ZS-DHF, operado pela empresa Proflight Air Services ficou parcialmente destruído após ser atingido por um raio e uma intensa chuva de granizo enquanto cumpria o voo P0-705 entre Livingstone e Lusaka, Zâmbia.

O incidente grave foi registrado no último dia 25/11/2019, a tripulação informou que o fato ocorreu durante a descida, foi informado que a aeronave além de ser atingida pelo granizo também foi atingida por um raio, passageiros também relataram que a aeronave foi atingida por um raio.

Imagem via: Mwebantu / Facebook

Felizmente a tripulação conseguiu pousar a aeronave em segurança no aeroporto de Lusaka por volta das 13:30LT (11:30Z), e somente após o pouso foi possível ver com clareza os danos causados na aeronave e o risco que todos a bordo corriam.

Os danos na aeronave foram dados como irreparáveis, abaixo é possível verificar o METAR no momento do ocorrido:

METAR:

FLKK 251800Z VRB02KT 9999 FEW///CB SCT100 BKN300 23/18 Q1017
FLKK 251700Z VRB02KT 9999 FEW///CB SCT100 BKN300 24/18 Q1017
FLKK 251500Z 32006KT 9999 FEW///CB FEW040TCU SCT100 BKN300 25/17 Q1016
FLKK 251400Z 06012KT 9999 FEW///CB BKN038TCU BKN100 24/17 Q1016
FLKK 251300Z 23004KT 9999 FEW///CB BKN038TCU BKN100 29/15 Q1015
FLKK 251200Z 23008KT 9999 BKN035TCU SCT100 29/16 Q1016
FLKK 251100Z VRB04KT 9999 BKN030TCU SCT100 30/18 Q1018

Imagem via: Mwebantu / Facebook
Imagem via: Mwebantu / Facebook
Imagem via: Mwebantu / Facebook
Imagem via: Mwebantu / Facebook
Imagem via: Mwebantu / Facebook
Imagem via: Mwebantu / Facebook
Imagem via: Mwebantu / Facebook
Imagem via: Mwebantu / Facebook
Imagem via: Mwebantu / Facebook
Imagem via: Mwebantu / Facebook
Imagem via: Mwebantu / Facebook
Imagem via: Mwebantu / Facebook
Imagem via: Mwebantu / Facebook
Imagem via: Mwebantu / Facebook

 

Advertisements

LEAVE A REPLY

Please enter your comment!
Please enter your name here

This site uses Akismet to reduce spam. Learn how your comment data is processed.